sensor_id;sensor_type;location;lat;lon;timestamp;P1;durP1;ratioP1;P2;durP2;ratioP2
8413;SDS011;4244;48.684;9.028;2023-02-28T00:01:21;3.23;;;2.90;;
8413;SDS011;4244;48.684;9.028;2023-02-28T00:03:47;5.30;;;3.40;;
8413;SDS011;4244;48.684;9.028;2023-02-28T00:06:13;3.40;;;3.10;;
8413;SDS011;4244;48.684;9.028;2023-02-28T00:08:39;6.23;;;3.63;;
8413;SDS011;4244;48.684;9.028;2023-02-28T00:11:06;3.70;;;3.07;;
8413;SDS011;4244;48.684;9.028;2023-02-28T00:13:34;4.50;;;3.03;;
8413;SDS011;4244;48.684;9.028;2023-02-28T00:16:03;3.60;;;2.80;;
8413;SDS011;4244;48.684;9.028;2023-02-28T00:18:31;5.33;;;3.20;;
8413;SDS011;4244;48.684;9.028;2023-02-28T00:20:57;5.10;;;3.50;;
8413;SDS011;4244;48.684;9.028;2023-02-28T00:23:23;5.40;;;3.60;;
8413;SDS011;4244;48.684;9.028;2023-02-28T00:25:49;5.30;;;3.13;;
8413;SDS011;4244;48.684;9.028;2023-02-28T00:28:15;3.23;;;2.83;;
8413;SDS011;4244;48.684;9.028;2023-02-28T00:30:42;4.57;;;3.40;;
8413;SDS011;4244;48.684;9.028;2023-02-28T00:33:08;4.87;;;3.80;;
8413;SDS011;4244;48.684;9.028;2023-02-28T00:35:33;4.33;;;3.57;;
8413;SDS011;4244;48.684;9.028;2023-02-28T00:37:59;4.80;;;3.33;;
8413;SDS011;4244;48.684;9.028;2023-02-28T00:40:25;3.30;;;3.00;;
8413;SDS011;4244;48.684;9.028;2023-02-28T00:42:50;4.30;;;3.33;;
8413;SDS011;4244;48.684;9.028;2023-02-28T00:45:16;3.73;;;2.87;;
8413;SDS011;4244;48.684;9.028;2023-02-28T00:47:41;4.77;;;3.53;;
8413;SDS011;4244;48.684;9.028;2023-02-28T00:50:07;4.10;;;3.40;;
8413;SDS011;4244;48.684;9.028;2023-02-28T00:52:34;4.00;;;3.13;;
8413;SDS011;4244;48.684;9.028;2023-02-28T00:54:59;3.90;;;3.50;;
8413;SDS011;4244;48.684;9.028;2023-02-28T00:57:25;4.03;;;3.40;;
8413;SDS011;4244;48.684;9.028;2023-02-28T00:59:51;4.03;;;2.77;;
8413;SDS011;4244;48.684;9.028;2023-02-28T01:02:19;5.03;;;3.73;;
8413;SDS011;4244;48.684;9.028;2023-02-28T01:04:46;4.40;;;3.13;;
8413;SDS011;4244;48.684;9.028;2023-02-28T01:07:11;3.10;;;2.80;;
8413;SDS011;4244;48.684;9.028;2023-02-28T01:09:39;5.23;;;3.93;;
8413;SDS011;4244;48.684;9.028;2023-02-28T01:12:07;5.30;;;3.37;;
8413;SDS011;4244;48.684;9.028;2023-02-28T01:14:34;4.70;;;3.73;;
8413;SDS011;4244;48.684;9.028;2023-02-28T01:17:00;3.70;;;3.30;;
8413;SDS011;4244;48.684;9.028;2023-02-28T01:19:26;3.53;;;3.00;;
8413;SDS011;4244;48.684;9.028;2023-02-28T01:21:51;6.20;;;3.60;;
8413;SDS011;4244;48.684;9.028;2023-02-28T01:24:17;4.13;;;3.30;;
8413;SDS011;4244;48.684;9.028;2023-02-28T01:26:43;4.13;;;3.10;;
8413;SDS011;4244;48.684;9.028;2023-02-28T01:29:08;4.10;;;3.17;;
8413;SDS011;4244;48.684;9.028;2023-02-28T01:31:34;4.83;;;3.50;;
8413;SDS011;4244;48.684;9.028;2023-02-28T01:34:00;5.63;;;3.90;;
8413;SDS011;4244;48.684;9.028;2023-02-28T01:36:25;4.33;;;3.40;;
8413;SDS011;4244;48.684;9.028;2023-02-28T01:38:51;5.20;;;3.70;;
8413;SDS011;4244;48.684;9.028;2023-02-28T01:46:10;4.53;;;3.97;;
8413;SDS011;4244;48.684;9.028;2023-02-28T01:48:58;7.73;;;3.97;;
8413;SDS011;4244;48.684;9.028;2023-02-28T01:51:41;4.53;;;3.70;;
8413;SDS011;4244;48.684;9.028;2023-02-28T01:54:11;4.13;;;3.73;;
8413;SDS011;4244;48.684;9.028;2023-02-28T01:56:42;4.33;;;3.43;;
8413;SDS011;4244;48.684;9.028;2023-02-28T01:59:14;4.73;;;4.30;;
8413;SDS011;4244;48.684;9.028;2023-02-28T02:01:45;6.17;;;3.80;;
8413;SDS011;4244;48.684;9.028;2023-02-28T02:04:11;5.70;;;3.87;;
8413;SDS011;4244;48.684;9.028;2023-02-28T02:06:39;4.07;;;3.53;;
8413;SDS011;4244;48.684;9.028;2023-02-28T02:09:07;5.03;;;3.70;;
8413;SDS011;4244;48.684;9.028;2023-02-28T02:11:33;4.90;;;3.70;;
8413;SDS011;4244;48.684;9.028;2023-02-28T02:16:41;4.40;;;4.00;;
8413;SDS011;4244;48.684;9.028;2023-02-28T02:36:18;4.93;;;3.80;;
8413;SDS011;4244;48.684;9.028;2023-02-28T02:39:02;5.20;;;4.10;;
8413;SDS011;4244;48.684;9.028;2023-02-28T02:44:24;4.93;;;4.20;;
8413;SDS011;4244;48.684;9.028;2023-02-28T02:47:09;4.70;;;4.10;;
8413;SDS011;4244;48.684;9.028;2023-02-28T02:49:38;5.50;;;4.33;;
8413;SDS011;4244;48.684;9.028;2023-02-28T02:52:06;7.23;;;4.10;;
8413;SDS011;4244;48.684;9.028;2023-02-28T02:54:38;5.97;;;4.30;;
8413;SDS011;4244;48.684;9.028;2023-02-28T02:58:10;4.57;;;3.60;;
8413;SDS011;4244;48.684;9.028;2023-02-28T03:00:06;5.90;;;4.50;;
8413;SDS011;4244;48.684;9.028;2023-02-28T03:02:33;4.90;;;3.90;;
8413;SDS011;4244;48.684;9.028;2023-02-28T03:05:02;5.10;;;4.60;;
8413;SDS011;4244;48.684;9.028;2023-02-28T03:07:31;5.27;;;4.13;;
8413;SDS011;4244;48.684;9.028;2023-02-28T03:09:57;8.50;;;4.63;;
8413;SDS011;4244;48.684;9.028;2023-02-28T03:12:23;5.70;;;4.20;;
8413;SDS011;4244;48.684;9.028;2023-02-28T03:15:08;5.47;;;4.97;;
8413;SDS011;4244;48.684;9.028;2023-02-28T03:23:36;5.27;;;4.27;;
8413;SDS011;4244;48.684;9.028;2023-02-28T03:26:12;5.57;;;4.80;;
8413;SDS011;4244;48.684;9.028;2023-02-28T03:28:43;4.93;;;4.27;;
8413;SDS011;4244;48.684;9.028;2023-02-28T03:31:31;5.40;;;4.60;;
8413;SDS011;4244;48.684;9.028;2023-02-28T03:37:10;5.97;;;5.37;;
8413;SDS011;4244;48.684;9.028;2023-02-28T03:39:43;5.87;;;5.20;;
8413;SDS011;4244;48.684;9.028;2023-02-28T03:42:14;5.03;;;4.43;;
8413;SDS011;4244;48.684;9.028;2023-02-28T03:44:44;6.37;;;4.90;;
8413;SDS011;4244;48.684;9.028;2023-02-28T03:47:14;5.90;;;4.87;;
8413;SDS011;4244;48.684;9.028;2023-02-28T03:49:45;6.13;;;5.53;;
8413;SDS011;4244;48.684;9.028;2023-02-28T03:52:14;6.50;;;5.33;;
8413;SDS011;4244;48.684;9.028;2023-02-28T03:54:44;6.70;;;6.00;;
8413;SDS011;4244;48.684;9.028;2023-02-28T03:57:56;7.80;;;5.03;;
8413;SDS011;4244;48.684;9.028;2023-02-28T04:00:25;7.03;;;5.50;;
8413;SDS011;4244;48.684;9.028;2023-02-28T04:02:54;6.43;;;5.27;;
8413;SDS011;4244;48.684;9.028;2023-02-28T04:05:20;5.63;;;5.13;;
8413;SDS011;4244;48.684;9.028;2023-02-28T04:07:46;7.20;;;5.63;;
8413;SDS011;4244;48.684;9.028;2023-02-28T04:10:13;6.50;;;4.77;;
8413;SDS011;4244;48.684;9.028;2023-02-28T04:12:40;5.90;;;5.30;;
8413;SDS011;4244;48.684;9.028;2023-02-28T04:15:05;6.23;;;5.63;;
8413;SDS011;4244;48.684;9.028;2023-02-28T04:17:32;6.97;;;5.50;;
8413;SDS011;4244;48.684;9.028;2023-02-28T04:19:57;5.70;;;5.20;;
8413;SDS011;4244;48.684;9.028;2023-02-28T04:22:23;7.03;;;5.60;;
8413;SDS011;4244;48.684;9.028;2023-02-28T04:24:52;6.00;;;5.40;;
8413;SDS011;4244;48.684;9.028;2023-02-28T04:27:19;6.53;;;5.50;;
8413;SDS011;4244;48.684;9.028;2023-02-28T04:29:45;6.47;;;5.30;;
8413;SDS011;4244;48.684;9.028;2023-02-28T04:32:11;6.50;;;5.03;;
8413;SDS011;4244;48.684;9.028;2023-02-28T04:34:37;6.23;;;5.30;;
8413;SDS011;4244;48.684;9.028;2023-02-28T04:37:03;5.97;;;5.37;;
8413;SDS011;4244;48.684;9.028;2023-02-28T04:39:28;6.20;;;5.50;;
8413;SDS011;4244;48.684;9.028;2023-02-28T04:41:54;7.60;;;5.30;;
8413;SDS011;4244;48.684;9.028;2023-02-28T04:44:20;6.23;;;5.40;;
8413;SDS011;4244;48.684;9.028;2023-02-28T04:46:47;7.60;;;5.23;;
8413;SDS011;4244;48.684;9.028;2023-02-28T04:49:13;7.03;;;5.37;;
8413;SDS011;4244;48.684;9.028;2023-02-28T04:51:39;7.53;;;6.37;;
8413;SDS011;4244;48.684;9.028;2023-02-28T04:54:04;7.53;;;5.80;;
8413;SDS011;4244;48.684;9.028;2023-02-28T04:56:30;5.97;;;5.33;;
8413;SDS011;4244;48.684;9.028;2023-02-28T04:58:56;8.63;;;6.50;;
8413;SDS011;4244;48.684;9.028;2023-02-28T05:01:25;6.93;;;6.27;;
8413;SDS011;4244;48.684;9.028;2023-02-28T05:03:53;5.97;;;5.37;;
8413;SDS011;4244;48.684;9.028;2023-02-28T05:06:20;7.10;;;6.10;;
8413;SDS011;4244;48.684;9.028;2023-02-28T05:08:47;6.03;;;5.20;;
8413;SDS011;4244;48.684;9.028;2023-02-28T05:11:17;8.63;;;5.70;;
8413;SDS011;4244;48.684;9.028;2023-02-28T05:13:48;7.53;;;6.50;;
8413;SDS011;4244;48.684;9.028;2023-02-28T05:16:14;6.80;;;6.20;;
8413;SDS011;4244;48.684;9.028;2023-02-28T05:18:40;7.07;;;6.37;;
8413;SDS011;4244;48.684;9.028;2023-02-28T05:21:06;6.90;;;6.17;;
8413;SDS011;4244;48.684;9.028;2023-02-28T05:23:49;10.00;;;6.20;;
8413;SDS011;4244;48.684;9.028;2023-02-28T05:26:15;7.50;;;6.77;;
8413;SDS011;4244;48.684;9.028;2023-02-28T05:28:41;6.97;;;6.27;;
8413;SDS011;4244;48.684;9.028;2023-02-28T05:31:07;7.70;;;6.87;;
8413;SDS011;4244;48.684;9.028;2023-02-28T05:33:35;6.13;;;5.53;;
8413;SDS011;4244;48.684;9.028;2023-02-28T05:36:01;6.40;;;5.80;;
8413;SDS011;4244;48.684;9.028;2023-02-28T05:38:27;6.83;;;6.03;;
8413;SDS011;4244;48.684;9.028;2023-02-28T05:40:52;6.70;;;5.83;;
8413;SDS011;4244;48.684;9.028;2023-02-28T05:43:18;7.00;;;5.87;;
8413;SDS011;4244;48.684;9.028;2023-02-28T05:45:44;9.67;;;7.03;;
8413;SDS011;4244;48.684;9.028;2023-02-28T05:48:10;7.47;;;5.63;;
8413;SDS011;4244;48.684;9.028;2023-02-28T05:50:36;6.63;;;6.03;;
8413;SDS011;4244;48.684;9.028;2023-02-28T05:53:02;6.57;;;5.87;;
8413;SDS011;4244;48.684;9.028;2023-02-28T05:55:28;7.80;;;7.07;;
8413;SDS011;4244;48.684;9.028;2023-02-28T05:57:54;7.07;;;6.37;;
8413;SDS011;4244;48.684;9.028;2023-02-28T06:00:21;8.47;;;6.70;;
8413;SDS011;4244;48.684;9.028;2023-02-28T06:02:47;6.30;;;5.70;;
8413;SDS011;4244;48.684;9.028;2023-02-28T06:05:18;7.83;;;6.83;;
8413;SDS011;4244;48.684;9.028;2023-02-28T06:07:44;9.70;;;6.87;;
8413;SDS011;4244;48.684;9.028;2023-02-28T06:10:10;7.30;;;6.37;;
8413;SDS011;4244;48.684;9.028;2023-02-28T06:12:36;7.47;;;6.60;;
8413;SDS011;4244;48.684;9.028;2023-02-28T06:15:02;7.37;;;6.67;;
8413;SDS011;4244;48.684;9.028;2023-02-28T06:17:28;8.07;;;7.10;;
8413;SDS011;4244;48.684;9.028;2023-02-28T06:19:54;6.97;;;6.27;;
8413;SDS011;4244;48.684;9.028;2023-02-28T06:22:19;8.47;;;6.73;;
8413;SDS011;4244;48.684;9.028;2023-02-28T06:24:45;7.83;;;7.03;;
8413;SDS011;4244;48.684;9.028;2023-02-28T06:27:11;8.40;;;7.33;;
8413;SDS011;4244;48.684;9.028;2023-02-28T06:29:36;8.63;;;7.77;;
8413;SDS011;4244;48.684;9.028;2023-02-28T06:32:04;9.03;;;6.73;;
8413;SDS011;4244;48.684;9.028;2023-02-28T06:34:30;8.33;;;7.50;;
8413;SDS011;4244;48.684;9.028;2023-02-28T06:36:58;7.33;;;6.63;;
8413;SDS011;4244;48.684;9.028;2023-02-28T06:39:27;9.03;;;8.13;;
8413;SDS011;4244;48.684;9.028;2023-02-28T06:41:53;8.47;;;7.57;;
8413;SDS011;4244;48.684;9.028;2023-02-28T06:44:19;7.97;;;6.60;;
8413;SDS011;4244;48.684;9.028;2023-02-28T06:46:45;7.77;;;7.03;;
8413;SDS011;4244;48.684;9.028;2023-02-28T06:49:11;9.20;;;7.27;;
8413;SDS011;4244;48.684;9.028;2023-02-28T06:51:37;7.10;;;6.50;;
8413;SDS011;4244;48.684;9.028;2023-02-28T06:54:04;7.70;;;6.83;;
8413;SDS011;4244;48.684;9.028;2023-02-28T06:56:31;9.00;;;7.70;;
8413;SDS011;4244;48.684;9.028;2023-02-28T06:58:58;8.10;;;6.83;;
8413;SDS011;4244;48.684;9.028;2023-02-28T07:01:23;8.80;;;7.90;;
8413;SDS011;4244;48.684;9.028;2023-02-28T07:03:49;8.40;;;7.50;;
8413;SDS011;4244;48.684;9.028;2023-02-28T07:06:21;10.30;;;7.97;;
8413;SDS011;4244;48.684;9.028;2023-02-28T07:08:50;8.47;;;7.07;;
8413;SDS011;4244;48.684;9.028;2023-02-28T07:11:17;10.53;;;7.70;;
8413;SDS011;4244;48.684;9.028;2023-02-28T07:13:44;8.80;;;7.90;;
8413;SDS011;4244;48.684;9.028;2023-02-28T07:16:10;8.43;;;7.63;;
8413;SDS011;4244;48.684;9.028;2023-02-28T07:18:36;9.93;;;8.50;;
8413;SDS011;4244;48.684;9.028;2023-02-28T07:21:03;8.30;;;7.50;;
8413;SDS011;4244;48.684;9.028;2023-02-28T07:23:31;12.43;;;8.43;;
8413;SDS011;4244;48.684;9.028;2023-02-28T07:25:57;9.10;;;8.00;;
8413;SDS011;4244;48.684;9.028;2023-02-28T07:28:23;8.03;;;7.07;;
8413;SDS011;4244;48.684;9.028;2023-02-28T07:30:49;9.10;;;8.23;;
8413;SDS011;4244;48.684;9.028;2023-02-28T07:33:14;9.20;;;8.27;;
8413;SDS011;4244;48.684;9.028;2023-02-28T07:35:40;8.20;;;7.30;;
8413;SDS011;4244;48.684;9.028;2023-02-28T07:38:06;9.60;;;8.33;;
8413;SDS011;4244;48.684;9.028;2023-02-28T07:40:35;10.27;;;9.13;;
8413;SDS011;4244;48.684;9.028;2023-02-28T07:43:01;10.13;;;8.23;;
8413;SDS011;4244;48.684;9.028;2023-02-28T07:45:27;9.33;;;8.30;;
8413;SDS011;4244;48.684;9.028;2023-02-28T07:47:54;9.73;;;8.73;;
8413;SDS011;4244;48.684;9.028;2023-02-28T07:50:20;9.50;;;8.37;;
8413;SDS011;4244;48.684;9.028;2023-02-28T07:52:45;10.67;;;9.67;;
8413;SDS011;4244;48.684;9.028;2023-02-28T07:55:11;10.07;;;7.80;;
8413;SDS011;4244;48.684;9.028;2023-02-28T07:57:38;8.80;;;8.00;;
8413;SDS011;4244;48.684;9.028;2023-02-28T08:00:05;11.97;;;9.93;;
8413;SDS011;4244;48.684;9.028;2023-02-28T08:02:34;9.43;;;8.50;;
8413;SDS011;4244;48.684;9.028;2023-02-28T08:05:00;10.33;;;9.27;;
8413;SDS011;4244;48.684;9.028;2023-02-28T08:07:26;10.93;;;9.73;;
8413;SDS011;4244;48.684;9.028;2023-02-28T08:09:51;11.20;;;9.77;;
8413;SDS011;4244;48.684;9.028;2023-02-28T08:12:17;9.87;;;8.90;;
8413;SDS011;4244;48.684;9.028;2023-02-28T08:14:44;10.17;;;9.20;;
8413;SDS011;4244;48.684;9.028;2023-02-28T08:17:10;10.63;;;9.20;;
8413;SDS011;4244;48.684;9.028;2023-02-28T08:19:36;10.07;;;8.77;;
8413;SDS011;4244;48.684;9.028;2023-02-28T08:22:02;10.23;;;9.13;;
8413;SDS011;4244;48.684;9.028;2023-02-28T08:24:27;10.60;;;9.50;;
8413;SDS011;4244;48.684;9.028;2023-02-28T08:26:53;10.83;;;9.77;;
8413;SDS011;4244;48.684;9.028;2023-02-28T08:29:19;11.83;;;10.63;;
8413;SDS011;4244;48.684;9.028;2023-02-28T08:31:45;11.57;;;10.37;;
8413;SDS011;4244;48.684;9.028;2023-02-28T08:34:11;10.73;;;9.73;;
8413;SDS011;4244;48.684;9.028;2023-02-28T08:36:38;11.37;;;10.27;;
8413;SDS011;4244;48.684;9.028;2023-02-28T08:39:05;10.67;;;9.60;;
8413;SDS011;4244;48.684;9.028;2023-02-28T08:41:33;10.70;;;9.60;;
8413;SDS011;4244;48.684;9.028;2023-02-28T08:43:58;11.20;;;10.00;;
8413;SDS011;4244;48.684;9.028;2023-02-28T08:46:25;11.00;;;8.43;;
8413;SDS011;4244;48.684;9.028;2023-02-28T08:48:51;11.00;;;9.90;;
8413;SDS011;4244;48.684;9.028;2023-02-28T08:51:24;10.53;;;8.83;;
8413;SDS011;4244;48.684;9.028;2023-02-28T08:53:53;10.00;;;9.10;;
8413;SDS011;4244;48.684;9.028;2023-02-28T08:56:19;11.17;;;9.53;;
8413;SDS011;4244;48.684;9.028;2023-02-28T08:58:46;11.20;;;9.93;;
8413;SDS011;4244;48.684;9.028;2023-02-28T09:01:14;11.30;;;10.10;;
8413;SDS011;4244;48.684;9.028;2023-02-28T09:03:44;11.60;;;10.47;;
8413;SDS011;4244;48.684;9.028;2023-02-28T09:06:11;10.73;;;9.63;;
8413;SDS011;4244;48.684;9.028;2023-02-28T09:08:37;12.07;;;10.30;;
8413;SDS011;4244;48.684;9.028;2023-02-28T09:11:04;10.93;;;9.80;;
8413;SDS011;4244;48.684;9.028;2023-02-28T09:13:31;11.17;;;9.17;;
8413;SDS011;4244;48.684;9.028;2023-02-28T09:16:00;12.20;;;10.87;;
8413;SDS011;4244;48.684;9.028;2023-02-28T09:18:27;10.67;;;9.57;;
8413;SDS011;4244;48.684;9.028;2023-02-28T09:20:53;9.63;;;8.70;;
8413;SDS011;4244;48.684;9.028;2023-02-28T09:23:19;10.27;;;9.27;;
8413;SDS011;4244;48.684;9.028;2023-02-28T09:25:50;11.27;;;9.90;;
8413;SDS011;4244;48.684;9.028;2023-02-28T09:28:18;11.13;;;10.03;;
8413;SDS011;4244;48.684;9.028;2023-02-28T09:30:44;11.00;;;9.80;;
8413;SDS011;4244;48.684;9.028;2023-02-28T09:33:11;10.80;;;9.57;;
8413;SDS011;4244;48.684;9.028;2023-02-28T09:35:37;11.43;;;10.00;;
8413;SDS011;4244;48.684;9.028;2023-02-28T09:38:03;11.73;;;9.43;;
8413;SDS011;4244;48.684;9.028;2023-02-28T09:40:29;9.77;;;8.77;;
8413;SDS011;4244;48.684;9.028;2023-02-28T09:42:56;12.80;;;10.57;;
8413;SDS011;4244;48.684;9.028;2023-02-28T09:45:30;11.40;;;10.20;;
8413;SDS011;4244;48.684;9.028;2023-02-28T09:47:59;11.30;;;9.50;;
8413;SDS011;4244;48.684;9.028;2023-02-28T09:50:36;11.60;;;9.60;;
8413;SDS011;4244;48.684;9.028;2023-02-28T09:53:13;11.00;;;9.97;;
8413;SDS011;4244;48.684;9.028;2023-02-28T09:55:49;10.63;;;9.63;;
8413;SDS011;4244;48.684;9.028;2023-02-28T09:58:20;10.77;;;9.77;;
8413;SDS011;4244;48.684;9.028;2023-02-28T10:01:03;11.23;;;9.60;;
8413;SDS011;4244;48.684;9.028;2023-02-28T10:03:43;10.77;;;9.60;;
8413;SDS011;4244;48.684;9.028;2023-02-28T10:06:22;10.70;;;9.33;;
8413;SDS011;4244;48.684;9.028;2023-02-28T10:08:58;11.17;;;10.07;;
8413;SDS011;4244;48.684;9.028;2023-02-28T10:11:29;10.90;;;9.80;;
8413;SDS011;4244;48.684;9.028;2023-02-28T10:13:59;11.37;;;10.17;;
8413;SDS011;4244;48.684;9.028;2023-02-28T10:19:15;10.50;;;9.40;;
8413;SDS011;4244;48.684;9.028;2023-02-28T10:21:49;9.73;;;8.73;;
8413;SDS011;4244;48.684;9.028;2023-02-28T10:24:36;10.70;;;9.60;;
8413;SDS011;4244;48.684;9.028;2023-02-28T10:27:13;10.87;;;9.77;;
8413;SDS011;4244;48.684;9.028;2023-02-28T10:29:42;10.37;;;9.33;;
8413;SDS011;4244;48.684;9.028;2023-02-28T10:32:09;11.23;;;10.13;;
8413;SDS011;4244;48.684;9.028;2023-02-28T10:34:37;11.13;;;10.03;;
8413;SDS011;4244;48.684;9.028;2023-02-28T10:37:03;12.30;;;9.77;;
8413;SDS011;4244;48.684;9.028;2023-02-28T10:42:04;11.43;;;10.43;;
8413;SDS011;4244;48.684;9.028;2023-02-28T10:44:31;10.97;;;9.70;;
8413;SDS011;4244;48.684;9.028;2023-02-28T10:46:57;10.70;;;9.73;;
8413;SDS011;4244;48.684;9.028;2023-02-28T10:49:24;10.90;;;9.80;;
8413;SDS011;4244;48.684;9.028;2023-02-28T10:51:52;11.37;;;10.27;;
8413;SDS011;4244;48.684;9.028;2023-02-28T10:54:35;11.50;;;10.07;;
8413;SDS011;4244;48.684;9.028;2023-02-28T10:59:44;9.37;;;8.57;;
8413;SDS011;4244;48.684;9.028;2023-02-28T11:04:59;10.70;;;9.70;;
8413;SDS011;4244;48.684;9.028;2023-02-28T11:07:25;9.20;;;8.20;;
8413;SDS011;4244;48.684;9.028;2023-02-28T11:09:53;10.30;;;9.30;;
8413;SDS011;4244;48.684;9.028;2023-02-28T11:12:22;9.60;;;8.70;;
8413;SDS011;4244;48.684;9.028;2023-02-28T11:15:04;10.53;;;9.53;;
8413;SDS011;4244;48.684;9.028;2023-02-28T11:17:32;11.23;;;10.03;;
8413;SDS011;4244;48.684;9.028;2023-02-28T11:19:59;10.67;;;9.67;;
8413;SDS011;4244;48.684;9.028;2023-02-28T11:22:29;10.80;;;9.80;;
8413;SDS011;4244;48.684;9.028;2023-02-28T11:25:01;10.50;;;9.47;;
8413;SDS011;4244;48.684;9.028;2023-02-28T11:29:59;9.43;;;8.63;;
8413;SDS011;4244;48.684;9.028;2023-02-28T11:32:28;11.27;;;10.17;;
8413;SDS011;4244;48.684;9.028;2023-02-28T11:37:36;9.97;;;8.97;;
8413;SDS011;4244;48.684;9.028;2023-02-28T11:40:05;10.00;;;9.10;;
8413;SDS011;4244;48.684;9.028;2023-02-28T11:48:23;10.40;;;9.50;;
8413;SDS011;4244;48.684;9.028;2023-02-28T11:51:18;10.27;;;9.17;;
8413;SDS011;4244;48.684;9.028;2023-02-28T11:56:37;10.87;;;9.93;;
8413;SDS011;4244;48.684;9.028;2023-02-28T12:10:20;10.93;;;9.83;;
8413;SDS011;4244;48.684;9.028;2023-02-28T12:20:38;9.80;;;9.00;;
8413;SDS011;4244;48.684;9.028;2023-02-28T12:26:41;10.40;;;9.60;;
8413;SDS011;4244;48.684;9.028;2023-02-28T12:29:19;9.77;;;8.97;;
8413;SDS011;4244;48.684;9.028;2023-02-28T12:32:01;10.30;;;9.30;;
8413;SDS011;4244;48.684;9.028;2023-02-28T12:34:46;10.03;;;9.23;;
8413;SDS011;4244;48.684;9.028;2023-02-28T12:37:16;10.00;;;9.03;;
8413;SDS011;4244;48.684;9.028;2023-02-28T12:39:45;9.40;;;8.60;;
8413;SDS011;4244;48.684;9.028;2023-02-28T12:42:15;10.63;;;9.73;;
8413;SDS011;4244;48.684;9.028;2023-02-28T12:44:56;10.23;;;9.37;;
8413;SDS011;4244;48.684;9.028;2023-02-28T12:47:24;11.03;;;10.13;;
8413;SDS011;4244;48.684;9.028;2023-02-28T12:50:00;10.70;;;9.90;;
8413;SDS011;4244;48.684;9.028;2023-02-28T12:58:44;8.93;;;8.23;;
8413;SDS011;4244;48.684;9.028;2023-02-28T13:09:34;10.23;;;9.43;;
8413;SDS011;4244;48.684;9.028;2023-02-28T13:12:00;9.67;;;8.77;;
8413;SDS011;4244;48.684;9.028;2023-02-28T13:14:27;9.13;;;8.43;;
8413;SDS011;4244;48.684;9.028;2023-02-28T13:16:58;8.37;;;7.67;;
8413;SDS011;4244;48.684;9.028;2023-02-28T13:22:20;10.40;;;9.60;;
8413;SDS011;4244;48.684;9.028;2023-02-28T13:25:50;10.67;;;9.87;;
8413;SDS011;4244;48.684;9.028;2023-02-28T13:27:58;8.80;;;8.10;;
8413;SDS011;4244;48.684;9.028;2023-02-28T13:36:27;10.27;;;9.47;;
8413;SDS011;4244;48.684;9.028;2023-02-28T13:38:58;10.07;;;9.27;;
8413;SDS011;4244;48.684;9.028;2023-02-28T13:44:08;9.80;;;9.10;;
8413;SDS011;4244;48.684;9.028;2023-02-28T14:06:15;10.40;;;9.63;;
8413;SDS011;4244;48.684;9.028;2023-02-28T14:11:40;9.20;;;8.60;;
8413;SDS011;4244;48.684;9.028;2023-02-28T14:14:08;10.60;;;9.80;;
8413;SDS011;4244;48.684;9.028;2023-02-28T14:16:55;9.67;;;8.87;;
8413;SDS011;4244;48.684;9.028;2023-02-28T14:19:23;8.77;;;8.07;;
8413;SDS011;4244;48.684;9.028;2023-02-28T14:24:30;7.90;;;7.30;;
8413;SDS011;4244;48.684;9.028;2023-02-28T14:32:51;8.77;;;8.07;;
8413;SDS011;4244;48.684;9.028;2023-02-28T14:35:46;8.60;;;7.90;;
8413;SDS011;4244;48.684;9.028;2023-02-28T14:38:55;9.27;;;8.37;;
8413;SDS011;4244;48.684;9.028;2023-02-28T14:44:02;8.33;;;7.73;;
8413;SDS011;4244;48.684;9.028;2023-02-28T14:46:38;7.70;;;6.93;;
8413;SDS011;4244;48.684;9.028;2023-02-28T14:49:05;7.63;;;7.10;;
8413;SDS011;4244;48.684;9.028;2023-02-28T14:51:32;8.40;;;7.80;;
8413;SDS011;4244;48.684;9.028;2023-02-28T14:53:59;9.03;;;7.10;;
8413;SDS011;4244;48.684;9.028;2023-02-28T14:56:36;8.00;;;7.30;;
8413;SDS011;4244;48.684;9.028;2023-02-28T14:59:03;8.30;;;7.60;;
8413;SDS011;4244;48.684;9.028;2023-02-28T15:01:29;8.47;;;7.87;;
8413;SDS011;4244;48.684;9.028;2023-02-28T15:04:05;8.60;;;7.80;;
8413;SDS011;4244;48.684;9.028;2023-02-28T15:06:32;8.17;;;7.57;;
8413;SDS011;4244;48.684;9.028;2023-02-28T15:09:08;8.63;;;8.00;;
8413;SDS011;4244;48.684;9.028;2023-02-28T15:11:35;8.77;;;8.10;;
8413;SDS011;4244;48.684;9.028;2023-02-28T15:14:03;8.23;;;7.63;;
8413;SDS011;4244;48.684;9.028;2023-02-28T15:16:31;8.27;;;7.60;;
8413;SDS011;4244;48.684;9.028;2023-02-28T15:19:06;8.23;;;7.57;;
8413;SDS011;4244;48.684;9.028;2023-02-28T15:21:38;8.13;;;7.40;;
8413;SDS011;4244;48.684;9.028;2023-02-28T15:24:07;8.63;;;6.83;;
8413;SDS011;4244;48.684;9.028;2023-02-28T15:26:39;6.80;;;6.30;;
8413;SDS011;4244;48.684;9.028;2023-02-28T15:29:07;7.90;;;7.30;;
8413;SDS011;4244;48.684;9.028;2023-02-28T15:31:41;8.13;;;7.43;;
8413;SDS011;4244;48.684;9.028;2023-02-28T15:34:17;7.10;;;6.60;;
8413;SDS011;4244;48.684;9.028;2023-02-28T15:36:48;7.90;;;7.30;;
8413;SDS011;4244;48.684;9.028;2023-02-28T15:39:18;7.37;;;6.77;;
8413;SDS011;4244;48.684;9.028;2023-02-28T15:41:49;7.20;;;6.60;;
8413;SDS011;4244;48.684;9.028;2023-02-28T15:44:16;7.90;;;7.30;;
8413;SDS011;4244;48.684;9.028;2023-02-28T15:47:05;7.40;;;6.80;;
8413;SDS011;4244;48.684;9.028;2023-02-28T15:49:39;6.97;;;6.40;;
8413;SDS011;4244;48.684;9.028;2023-02-28T15:52:09;7.77;;;7.10;;
8413;SDS011;4244;48.684;9.028;2023-02-28T15:54:39;6.90;;;6.33;;
8413;SDS011;4244;48.684;9.028;2023-02-28T15:57:05;8.13;;;7.37;;
8413;SDS011;4244;48.684;9.028;2023-02-28T15:59:33;7.77;;;7.03;;
8413;SDS011;4244;48.684;9.028;2023-02-28T16:02:12;8.43;;;7.83;;
8413;SDS011;4244;48.684;9.028;2023-02-28T16:07:41;9.30;;;8.60;;
8413;SDS011;4244;48.684;9.028;2023-02-28T16:10:09;9.10;;;8.40;;
8413;SDS011;4244;48.684;9.028;2023-02-28T16:12:37;8.27;;;7.57;;
8413;SDS011;4244;48.684;9.028;2023-02-28T16:15:07;9.03;;;8.23;;
8413;SDS011;4244;48.684;9.028;2023-02-28T16:17:44;8.30;;;7.60;;
8413;SDS011;4244;48.684;9.028;2023-02-28T16:20:21;8.67;;;7.97;;
8413;SDS011;4244;48.684;9.028;2023-02-28T16:22:53;8.47;;;7.87;;
8413;SDS011;4244;48.684;9.028;2023-02-28T16:25:20;8.80;;;8.10;;
8413;SDS011;4244;48.684;9.028;2023-02-28T16:27:49;9.13;;;8.43;;
8413;SDS011;4244;48.684;9.028;2023-02-28T16:30:17;8.03;;;7.33;;
8413;SDS011;4244;48.684;9.028;2023-02-28T16:32:45;8.80;;;8.07;;
8413;SDS011;4244;48.684;9.028;2023-02-28T16:35:11;9.50;;;8.70;;
8413;SDS011;4244;48.684;9.028;2023-02-28T16:37:38;9.90;;;9.10;;
8413;SDS011;4244;48.684;9.028;2023-02-28T16:40:05;8.53;;;7.83;;
8413;SDS011;4244;48.684;9.028;2023-02-28T16:42:31;9.50;;;8.70;;
8413;SDS011;4244;48.684;9.028;2023-02-28T16:44:59;9.27;;;8.53;;
8413;SDS011;4244;48.684;9.028;2023-02-28T16:47:26;8.77;;;7.97;;
8413;SDS011;4244;48.684;9.028;2023-02-28T16:49:52;10.27;;;9.13;;
8413;SDS011;4244;48.684;9.028;2023-02-28T16:52:19;9.67;;;8.77;;
8413;SDS011;4244;48.684;9.028;2023-02-28T16:54:45;9.07;;;8.37;;
8413;SDS011;4244;48.684;9.028;2023-02-28T16:57:18;9.40;;;8.60;;
8413;SDS011;4244;48.684;9.028;2023-02-28T16:59:46;9.30;;;8.50;;
8413;SDS011;4244;48.684;9.028;2023-02-28T17:02:13;9.83;;;9.03;;
8413;SDS011;4244;48.684;9.028;2023-02-28T17:04:40;9.40;;;8.60;;
8413;SDS011;4244;48.684;9.028;2023-02-28T17:07:08;10.00;;;9.00;;
8413;SDS011;4244;48.684;9.028;2023-02-28T17:09:37;10.90;;;9.90;;
8413;SDS011;4244;48.684;9.028;2023-02-28T17:12:03;9.80;;;8.90;;
8413;SDS011;4244;48.684;9.028;2023-02-28T17:14:29;10.10;;;9.23;;
8413;SDS011;4244;48.684;9.028;2023-02-28T17:16:54;10.30;;;9.30;;
8413;SDS011;4244;48.684;9.028;2023-02-28T17:19:20;10.33;;;9.40;;
8413;SDS011;4244;48.684;9.028;2023-02-28T17:21:46;9.70;;;8.80;;
8413;SDS011;4244;48.684;9.028;2023-02-28T17:24:12;9.93;;;9.07;;
8413;SDS011;4244;48.684;9.028;2023-02-28T17:26:40;8.40;;;7.67;;
8413;SDS011;4244;48.684;9.028;2023-02-28T17:29:18;10.10;;;9.20;;
8413;SDS011;4244;48.684;9.028;2023-02-28T17:31:45;9.60;;;8.80;;
8413;SDS011;4244;48.684;9.028;2023-02-28T17:34:11;11.60;;;10.40;;
8413;SDS011;4244;48.684;9.028;2023-02-28T17:36:42;11.20;;;10.20;;
8413;SDS011;4244;48.684;9.028;2023-02-28T17:39:12;10.73;;;9.73;;
8413;SDS011;4244;48.684;9.028;2023-02-28T17:41:39;10.13;;;9.13;;
8413;SDS011;4244;48.684;9.028;2023-02-28T17:44:06;10.17;;;9.27;;
8413;SDS011;4244;48.684;9.028;2023-02-28T17:46:33;10.63;;;9.67;;
8413;SDS011;4244;48.684;9.028;2023-02-28T17:48:58;10.67;;;9.73;;